createdAt,value
2017-09-10T00:01:24.823Z,12.80
2017-09-10T00:03:53.861Z,12.80
2017-09-10T00:06:22.832Z,12.60
2017-09-10T00:08:51.841Z,12.60
2017-09-10T00:11:21.288Z,12.60
2017-09-10T00:13:50.275Z,12.60
2017-09-10T00:16:20.031Z,12.50
2017-09-10T00:18:49.065Z,12.40
2017-09-10T00:21:18.080Z,12.50
2017-09-10T00:23:47.057Z,12.60
2017-09-10T00:26:16.833Z,12.60
2017-09-10T00:28:45.841Z,12.60
2017-09-10T00:31:14.929Z,12.70
2017-09-10T00:33:44.006Z,12.70
2017-09-10T00:36:12.953Z,12.60
2017-09-10T00:38:41.985Z,12.60
2017-09-10T00:41:11.319Z,12.60
2017-09-10T00:43:41.000Z,12.60
2017-09-10T00:46:09.848Z,12.50
2017-09-10T00:48:38.616Z,12.40
2017-09-10T00:51:07.519Z,12.40
2017-09-10T00:53:36.777Z,12.40
2017-09-10T00:56:07.173Z,12.40
2017-09-10T00:58:36.107Z,12.40
2017-09-10T01:01:05.956Z,12.40
2017-09-10T01:03:36.714Z,12.40
2017-09-10T01:06:05.827Z,12.30
2017-09-10T01:08:36.158Z,12.10
2017-09-10T01:11:06.456Z,12.20
2017-09-10T01:13:35.436Z,12.20
2017-09-10T01:16:04.445Z,12.20
2017-09-10T01:18:33.602Z,12.00
2017-09-10T01:21:02.521Z,11.90
2017-09-10T01:23:31.819Z,11.80
2017-09-10T01:26:00.628Z,11.70
2017-09-10T01:28:29.465Z,11.60
2017-09-10T01:30:58.301Z,11.60
2017-09-10T01:33:27.066Z,11.70
2017-09-10T01:35:56.394Z,11.80
2017-09-10T01:38:25.199Z,11.80
2017-09-10T01:40:54.320Z,11.80
2017-09-10T01:43:23.650Z,11.80
2017-09-10T01:45:53.101Z,11.80
2017-09-10T01:48:22.805Z,11.90
2017-09-10T01:50:51.701Z,11.80
2017-09-10T01:53:20.481Z,11.80
2017-09-10T01:55:49.757Z,11.80
2017-09-10T01:58:18.782Z,11.80
2017-09-10T02:00:47.615Z,11.70
2017-09-10T02:03:16.462Z,11.50
2017-09-10T02:05:45.812Z,11.40
2017-09-10T02:08:15.112Z,11.40
2017-09-10T02:10:43.958Z,11.50
2017-09-10T02:13:12.831Z,11.50
2017-09-10T02:15:41.769Z,11.60
2017-09-10T02:18:10.657Z,11.50
2017-09-10T02:20:39.752Z,11.40
2017-09-10T02:23:08.854Z,11.50
2017-09-10T02:25:38.008Z,11.50
2017-09-10T02:28:06.966Z,11.50
2017-09-10T02:30:36.578Z,11.60
2017-09-10T02:33:06.260Z,11.50
2017-09-10T02:35:35.136Z,11.50
2017-09-10T02:38:04.381Z,11.50
2017-09-10T02:40:33.541Z,11.50
2017-09-10T02:43:02.834Z,11.50
2017-09-10T02:45:31.858Z,11.50
2017-09-10T02:48:01.661Z,11.40
2017-09-10T02:50:30.761Z,11.40
2017-09-10T02:53:00.610Z,11.40
2017-09-10T02:55:29.609Z,11.40
2017-09-10T02:57:58.637Z,11.50
2017-09-10T03:00:27.711Z,11.40
2017-09-10T03:02:56.973Z,11.40
2017-09-10T03:05:25.837Z,11.40
2017-09-10T03:07:55.888Z,11.40
2017-09-10T03:10:24.944Z,11.40
2017-09-10T03:12:54.870Z,11.40
2017-09-10T03:15:24.734Z,11.40
2017-09-10T03:17:53.741Z,11.40
2017-09-10T03:20:23.224Z,11.30
2017-09-10T03:22:52.288Z,11.30
2017-09-10T03:25:21.146Z,11.10
2017-09-10T03:27:50.085Z,11.10
2017-09-10T03:30:19.034Z,11.10
2017-09-10T03:32:48.286Z,11.00
2017-09-10T03:35:17.283Z,10.90
2017-09-10T03:37:46.355Z,10.70
2017-09-10T03:40:15.807Z,10.70
2017-09-10T03:42:45.117Z,10.70
2017-09-10T03:45:14.848Z,10.90
2017-09-10T03:47:43.935Z,10.80
2017-09-10T03:50:13.199Z,10.90
2017-09-10T03:52:42.497Z,10.80
2017-09-10T03:55:11.283Z,10.70
2017-09-10T03:57:40.098Z,10.60
2017-09-10T04:00:10.253Z,10.50
2017-09-10T04:02:39.137Z,10.50
2017-09-10T04:05:07.969Z,10.50
2017-09-10T04:07:36.742Z,10.50
2017-09-10T04:10:05.554Z,10.60
2017-09-10T04:12:35.756Z,10.70
2017-09-10T04:15:04.617Z,10.70
2017-09-10T04:17:33.678Z,10.80
2017-09-10T04:20:02.764Z,10.80
2017-09-10T04:22:32.561Z,10.90
2017-09-10T04:25:01.866Z,10.80
2017-09-10T04:27:30.937Z,10.90
2017-09-10T04:30:00.160Z,10.90
2017-09-10T04:32:30.271Z,10.80
2017-09-10T04:34:59.414Z,10.90
2017-09-10T04:37:28.572Z,10.90
2017-09-10T04:39:58.487Z,10.90
2017-09-10T04:42:28.381Z,10.90
2017-09-10T04:44:57.755Z,10.90
2017-09-10T04:47:27.009Z,10.90
2017-09-10T04:49:56.156Z,10.90
2017-09-10T04:52:25.231Z,10.80
2017-09-10T04:54:54.193Z,10.80
2017-09-10T04:57:23.156Z,10.80
2017-09-10T04:59:53.002Z,10.80
2017-09-10T05:02:21.998Z,10.80
2017-09-10T05:04:51.027Z,10.80
2017-09-10T05:07:19.970Z,10.80
2017-09-10T05:09:48.805Z,10.80
2017-09-10T05:12:17.637Z,10.80
2017-09-10T05:14:46.861Z,10.70
2017-09-10T05:17:16.281Z,10.60
2017-09-10T05:19:45.633Z,10.60
2017-09-10T05:22:15.020Z,10.60
2017-09-10T05:24:44.777Z,10.70
2017-09-10T05:27:14.074Z,10.70
2017-09-10T05:29:42.875Z,10.80
2017-09-10T05:32:12.096Z,10.80
2017-09-10T05:34:41.006Z,10.90
2017-09-10T05:37:10.892Z,11.10
2017-09-10T05:39:39.980Z,11.10
2017-09-10T05:42:08.793Z,11.20
2017-09-10T05:44:38.501Z,11.30
2017-09-10T05:47:07.505Z,11.30
2017-09-10T05:49:37.293Z,11.40
2017-09-10T05:52:06.351Z,11.40
2017-09-10T05:54:35.473Z,11.40
2017-09-10T05:57:04.878Z,11.50
2017-09-10T05:59:33.857Z,11.50
2017-09-10T06:02:03.040Z,11.60
2017-09-10T06:04:32.077Z,11.60
2017-09-10T06:07:01.265Z,11.70
2017-09-10T06:09:30.768Z,11.70
2017-09-10T06:11:59.850Z,11.80
2017-09-10T06:14:28.776Z,11.90
2017-09-10T06:16:57.625Z,12.00
2017-09-10T06:19:26.537Z,12.10
2017-09-10T06:21:55.481Z,12.10
2017-09-10T06:24:25.022Z,12.10
2017-09-10T06:26:54.407Z,12.20
2017-09-10T06:29:23.392Z,12.30
2017-09-10T06:31:52.565Z,12.30
2017-09-10T06:34:21.726Z,12.30
2017-09-10T06:36:51.447Z,12.50
2017-09-10T06:39:20.962Z,12.50
2017-09-10T06:41:50.034Z,12.50
2017-09-10T06:44:19.030Z,12.60
2017-09-10T06:46:48.199Z,12.70
2017-09-10T06:49:17.063Z,12.80
2017-09-10T06:51:46.636Z,12.90
2017-09-10T06:54:15.558Z,13.00
2017-09-10T06:56:44.572Z,13.10
2017-09-10T06:59:13.405Z,13.20
2017-09-10T07:01:42.221Z,13.20
2017-09-10T07:04:11.051Z,13.20
2017-09-10T07:06:39.910Z,13.30
2017-09-10T07:09:08.713Z,13.30
2017-09-10T07:11:37.581Z,13.40
2017-09-10T07:14:06.539Z,13.50
2017-09-10T07:16:35.535Z,13.60
2017-09-10T07:19:04.675Z,13.70
2017-09-10T07:21:34.175Z,13.70
2017-09-10T07:24:03.390Z,13.80
2017-09-10T07:26:32.425Z,13.80
2017-09-10T07:29:01.618Z,13.80
2017-09-10T07:31:30.846Z,13.90
2017-09-10T07:34:00.301Z,14.00
2017-09-10T07:36:29.220Z,14.10
2017-09-10T07:38:58.061Z,14.20
2017-09-10T07:41:27.913Z,14.30
2017-09-10T07:43:56.848Z,14.30
2017-09-10T07:46:26.107Z,14.40
2017-09-10T07:48:55.151Z,14.40
2017-09-10T07:51:24.441Z,14.40
2017-09-10T07:53:53.541Z,14.50
2017-09-10T07:56:22.611Z,14.60
2017-09-10T07:58:51.583Z,14.60
2017-09-10T08:01:20.574Z,14.70
2017-09-10T08:03:50.037Z,14.80
2017-09-10T08:06:19.926Z,14.90
2017-09-10T08:08:48.925Z,14.90
2017-09-10T08:11:18.566Z,15.10
2017-09-10T08:13:47.500Z,15.10
2017-09-10T08:16:16.816Z,15.20
2017-09-10T08:18:45.848Z,15.20
2017-09-10T08:21:15.054Z,15.30
2017-09-10T08:23:44.214Z,15.40
2017-09-10T08:26:13.886Z,15.40
2017-09-10T08:28:42.705Z,15.40
2017-09-10T08:31:12.424Z,15.60
2017-09-10T08:33:41.581Z,15.60
2017-09-10T08:36:10.673Z,15.80
2017-09-10T08:38:39.833Z,15.80
2017-09-10T08:41:08.943Z,15.90
2017-09-10T08:43:37.942Z,16.00
2017-09-10T08:46:07.341Z,16.00
2017-09-10T08:48:36.296Z,16.10
2017-09-10T08:51:05.253Z,16.10
2017-09-10T08:53:34.066Z,16.10
2017-09-10T08:56:03.810Z,16.20
2017-09-10T08:58:32.959Z,16.20
2017-09-10T09:01:02.606Z,16.40
2017-09-10T09:03:31.791Z,16.40
2017-09-10T09:06:00.895Z,16.50
2017-09-10T09:08:29.993Z,16.50
2017-09-10T09:10:59.196Z,16.50
2017-09-10T09:13:28.424Z,16.60
2017-09-10T09:15:57.840Z,16.70
2017-09-10T09:18:27.555Z,16.80
2017-09-10T09:20:57.350Z,16.80
2017-09-10T09:23:26.361Z,16.80
2017-09-10T09:25:55.937Z,16.80
2017-09-10T09:28:25.229Z,16.80
2017-09-10T09:30:54.161Z,16.90
2017-09-10T09:33:22.965Z,17.20
2017-09-10T09:35:51.917Z,17.30
2017-09-10T09:38:20.762Z,17.40
2017-09-10T09:40:49.882Z,17.60
2017-09-10T09:43:18.715Z,17.80
2017-09-10T09:47:16.910Z,17.90
2017-09-10T09:49:45.981Z,18.20
2017-09-10T09:52:16.150Z,18.20
2017-09-10T09:54:45.054Z,18.20
2017-09-10T09:57:13.863Z,18.30
2017-09-10T09:59:42.733Z,18.20
2017-09-10T10:02:11.595Z,18.40
2017-09-10T10:04:40.771Z,18.80
2017-09-10T10:07:09.801Z,18.70
2017-09-10T10:09:38.826Z,18.60
2017-09-10T10:12:07.830Z,18.50
2017-09-10T10:14:37.610Z,19.10
2017-09-10T10:17:06.833Z,19.10
2017-09-10T10:21:05.780Z,19.60
2017-09-10T10:23:34.637Z,19.60
2017-09-10T10:26:03.518Z,19.40
2017-09-10T10:28:33.657Z,19.30
2017-09-10T10:31:02.777Z,19.10
2017-09-10T10:33:31.671Z,19.20
2017-09-10T10:36:00.520Z,19.20
2017-09-10T10:38:29.619Z,19.20
2017-09-10T10:40:59.023Z,19.50
2017-09-10T10:43:28.126Z,19.80
2017-09-10T10:45:57.167Z,19.80
